Terminal Aerodrome Forecast
Issued by NWS Billings, MT

Home | Current Version | Previous Version | Text Only | Print | Product List | Glossary Off
Versions: 1 2 3 4 5 6 7 8 9 10 11 12 13 14 15 16 17 18 19 20 21 22 23 24

727
FTUS45 KBYZ 160529
TAFMLS
TAF
KMLS 160529Z 1606/1706 14010KT P6SM BKN250
     FM160900 15008KT P6SM FEW090 BKN120
     FM162100 22010KT P6SM BKN070
     FM170100 33015KT P6SM -SHRA SCT050 OVC070=

USA.gov is the U.S. government's official web portal to all federal, state and local government web resources and services.